sensor_id;sensor_type;location;lat;lon;timestamp;temperature;humidity
8988;DHT22;4529;51.360;12.474;2022-10-16T00:04:54;15.40;99.90
8988;DHT22;4529;51.360;12.474;2022-10-16T00:09:57;15.20;99.90
8988;DHT22;4529;51.360;12.474;2022-10-16T00:15:01;15.00;99.90
8988;DHT22;4529;51.360;12.474;2022-10-16T00:20:05;15.10;99.90
8988;DHT22;4529;51.360;12.474;2022-10-16T00:25:09;15.00;99.90
8988;DHT22;4529;51.360;12.474;2022-10-16T00:30:12;15.10;99.90
8988;DHT22;4529;51.360;12.474;2022-10-16T00:35:16;15.40;99.90
8988;DHT22;4529;51.360;12.474;2022-10-16T00:40:19;15.50;99.90
8988;DHT22;4529;51.360;12.474;2022-10-16T00:45:23;15.60;99.90
8988;DHT22;4529;51.360;12.474;2022-10-16T00:50:32;15.80;99.90
8988;DHT22;4529;51.360;12.474;2022-10-16T00:55:35;16.00;99.90
8988;DHT22;4529;51.360;12.474;2022-10-16T01:00:38;16.10;99.90
8988;DHT22;4529;51.360;12.474;2022-10-16T01:05:44;16.30;99.90
8988;DHT22;4529;51.360;12.474;2022-10-16T01:10:59;16.30;99.90
8988;DHT22;4529;51.360;12.474;2022-10-16T01:16:07;16.40;99.90
8988;DHT22;4529;51.360;12.474;2022-10-16T01:32:40;16.50;99.90
8988;DHT22;4529;51.360;12.474;2022-10-16T01:37:43;16.40;99.90
8988;DHT22;4529;51.360;12.474;2022-10-16T01:42:53;16.50;99.90
8988;DHT22;4529;51.360;12.474;2022-10-16T01:47:54;16.30;99.90
8988;DHT22;4529;51.360;12.474;2022-10-16T01:52:58;16.30;99.90
8988;DHT22;4529;51.360;12.474;2022-10-16T01:58:02;16.30;99.90
8988;DHT22;4529;51.360;12.474;2022-10-16T02:03:05;16.30;99.90
8988;DHT22;4529;51.360;12.474;2022-10-16T02:08:08;16.30;99.90
8988;DHT22;4529;51.360;12.474;2022-10-16T02:13:26;16.30;99.90
8988;DHT22;4529;51.360;12.474;2022-10-16T02:18:27;16.20;99.90
8988;DHT22;4529;51.360;12.474;2022-10-16T02:23:47;16.20;99.90
8988;DHT22;4529;51.360;12.474;2022-10-16T02:28:51;16.20;99.90
8988;DHT22;4529;51.360;12.474;2022-10-16T02:33:53;16.10;99.90
8988;DHT22;4529;51.360;12.474;2022-10-16T02:38:57;16.10;99.90
8988;DHT22;4529;51.360;12.474;2022-10-16T02:44:01;16.10;99.90
8988;DHT22;4529;51.360;12.474;2022-10-16T02:49:05;16.10;99.90
8988;DHT22;4529;51.360;12.474;2022-10-16T02:54:09;16.10;99.90
8988;DHT22;4529;51.360;12.474;2022-10-16T02:59:13;16.10;99.90
8988;DHT22;4529;51.360;12.474;2022-10-16T03:04:17;16.10;99.90
8988;DHT22;4529;51.360;12.474;2022-10-16T03:09:21;16.00;99.90
8988;DHT22;4529;51.360;12.474;2022-10-16T03:14:26;15.90;99.90
8988;DHT22;4529;51.360;12.474;2022-10-16T03:19:30;15.80;99.90
8988;DHT22;4529;51.360;12.474;2022-10-16T03:24:33;15.80;99.90
8988;DHT22;4529;51.360;12.474;2022-10-16T03:29:37;15.90;99.90
8988;DHT22;4529;51.360;12.474;2022-10-16T03:34:40;15.80;99.90
8988;DHT22;4529;51.360;12.474;2022-10-16T03:39:44;15.70;99.90
8988;DHT22;4529;51.360;12.474;2022-10-16T03:44:47;15.80;99.90
8988;DHT22;4529;51.360;12.474;2022-10-16T03:49:50;15.80;99.90
8988;DHT22;4529;51.360;12.474;2022-10-16T03:54:54;15.80;99.90
8988;DHT22;4529;51.360;12.474;2022-10-16T03:59:57;15.70;99.90
8988;DHT22;4529;51.360;12.474;2022-10-16T04:05:01;15.70;99.90
8988;DHT22;4529;51.360;12.474;2022-10-16T04:10:04;15.70;99.90
8988;DHT22;4529;51.360;12.474;2022-10-16T04:15:08;15.70;99.90
8988;DHT22;4529;51.360;12.474;2022-10-16T04:20:12;15.60;99.90
8988;DHT22;4529;51.360;12.474;2022-10-16T04:25:16;15.60;99.90
8988;DHT22;4529;51.360;12.474;2022-10-16T04:30:20;15.60;99.90
8988;DHT22;4529;51.360;12.474;2022-10-16T04:35:23;15.60;99.90
8988;DHT22;4529;51.360;12.474;2022-10-16T04:40:27;15.60;99.90
8988;DHT22;4529;51.360;12.474;2022-10-16T04:45:31;15.60;99.90
8988;DHT22;4529;51.360;12.474;2022-10-16T04:50:35;15.60;99.90
8988;DHT22;4529;51.360;12.474;2022-10-16T04:55:40;15.60;99.90
8988;DHT22;4529;51.360;12.474;2022-10-16T05:00:44;15.50;99.90
8988;DHT22;4529;51.360;12.474;2022-10-16T05:05:48;15.50;99.90
8988;DHT22;4529;51.360;12.474;2022-10-16T05:10:52;15.50;99.90
8988;DHT22;4529;51.360;12.474;2022-10-16T05:15:56;15.60;99.90
8988;DHT22;4529;51.360;12.474;2022-10-16T05:21:00;15.60;99.90
8988;DHT22;4529;51.360;12.474;2022-10-16T05:26:05;15.60;99.90
8988;DHT22;4529;51.360;12.474;2022-10-16T05:31:08;15.60;99.90
8988;DHT22;4529;51.360;12.474;2022-10-16T05:36:11;15.50;99.90
8988;DHT22;4529;51.360;12.474;2022-10-16T05:41:15;15.50;99.90
8988;DHT22;4529;51.360;12.474;2022-10-16T05:46:18;15.50;99.90
8988;DHT22;4529;51.360;12.474;2022-10-16T05:51:22;15.50;99.90
8988;DHT22;4529;51.360;12.474;2022-10-16T05:56:25;15.60;99.90
8988;DHT22;4529;51.360;12.474;2022-10-16T06:01:29;15.70;99.90
8988;DHT22;4529;51.360;12.474;2022-10-16T06:06:32;15.70;99.90
8988;DHT22;4529;51.360;12.474;2022-10-16T06:11:36;15.70;99.90
8988;DHT22;4529;51.360;12.474;2022-10-16T06:16:39;15.80;99.90
8988;DHT22;4529;51.360;12.474;2022-10-16T06:21:43;15.90;99.90
8988;DHT22;4529;51.360;12.474;2022-10-16T06:26:46;15.80;99.90
8988;DHT22;4529;51.360;12.474;2022-10-16T06:31:50;15.80;99.90
8988;DHT22;4529;51.360;12.474;2022-10-16T06:36:53;15.90;99.90
8988;DHT22;4529;51.360;12.474;2022-10-16T06:41:57;15.90;99.90
8988;DHT22;4529;51.360;12.474;2022-10-16T06:47:00;15.90;99.90
8988;DHT22;4529;51.360;12.474;2022-10-16T06:52:04;16.00;99.90
8988;DHT22;4529;51.360;12.474;2022-10-16T06:57:07;16.00;99.90
8988;DHT22;4529;51.360;12.474;2022-10-16T07:02:11;16.10;99.90
8988;DHT22;4529;51.360;12.474;2022-10-16T07:07:14;16.10;99.90
8988;DHT22;4529;51.360;12.474;2022-10-16T07:12:18;16.20;99.90
8988;DHT22;4529;51.360;12.474;2022-10-16T07:17:21;16.20;99.90
8988;DHT22;4529;51.360;12.474;2022-10-16T07:22:24;16.30;99.90
8988;DHT22;4529;51.360;12.474;2022-10-16T07:27:28;16.30;99.90
8988;DHT22;4529;51.360;12.474;2022-10-16T07:32:31;16.40;99.90
8988;DHT22;4529;51.360;12.474;2022-10-16T07:37:35;16.40;99.90
8988;DHT22;4529;51.360;12.474;2022-10-16T07:42:38;16.60;99.90
8988;DHT22;4529;51.360;12.474;2022-10-16T07:47:42;16.60;99.90
8988;DHT22;4529;51.360;12.474;2022-10-16T07:52:45;16.60;99.90
8988;DHT22;4529;51.360;12.474;2022-10-16T07:57:49;16.80;99.90
8988;DHT22;4529;51.360;12.474;2022-10-16T08:02:52;17.00;99.90
8988;DHT22;4529;51.360;12.474;2022-10-16T08:07:56;17.20;99.90
8988;DHT22;4529;51.360;12.474;2022-10-16T08:12:59;17.40;99.90
8988;DHT22;4529;51.360;12.474;2022-10-16T08:18:03;17.70;99.90
8988;DHT22;4529;51.360;12.474;2022-10-16T08:23:06;18.20;99.90
8988;DHT22;4529;51.360;12.474;2022-10-16T08:28:10;18.50;99.90
8988;DHT22;4529;51.360;12.474;2022-10-16T08:33:13;18.90;99.90
8988;DHT22;4529;51.360;12.474;2022-10-16T08:38:16;18.70;99.90
8988;DHT22;4529;51.360;12.474;2022-10-16T08:48:36;18.60;99.90
8988;DHT22;4529;51.360;12.474;2022-10-16T08:53:52;18.70;99.90
8988;DHT22;4529;51.360;12.474;2022-10-16T08:58:53;18.80;99.90
8988;DHT22;4529;51.360;12.474;2022-10-16T09:20:22;19.40;99.90
8988;DHT22;4529;51.360;12.474;2022-10-16T09:25:23;19.60;99.90
8988;DHT22;4529;51.360;12.474;2022-10-16T09:30:28;19.80;99.90
8988;DHT22;4529;51.360;12.474;2022-10-16T09:35:44;19.70;99.90
8988;DHT22;4529;51.360;12.474;2022-10-16T09:40:47;20.00;99.90
8988;DHT22;4529;51.360;12.474;2022-10-16T09:46:01;20.00;99.90
8988;DHT22;4529;51.360;12.474;2022-10-16T09:51:06;20.10;99.90
8988;DHT22;4529;51.360;12.474;2022-10-16T09:56:09;20.10;99.90
8988;DHT22;4529;51.360;12.474;2022-10-16T10:01:13;20.10;99.90
8988;DHT22;4529;51.360;12.474;2022-10-16T10:06:26;20.00;99.90
8988;DHT22;4529;51.360;12.474;2022-10-16T10:11:48;20.00;99.90
8988;DHT22;4529;51.360;12.474;2022-10-16T10:16:51;19.90;99.90
8988;DHT22;4529;51.360;12.474;2022-10-16T10:21:55;19.90;99.90
8988;DHT22;4529;51.360;12.474;2022-10-16T10:27:10;20.00;99.90
8988;DHT22;4529;51.360;12.474;2022-10-16T10:37:37;19.90;99.90
8988;DHT22;4529;51.360;12.474;2022-10-16T10:42:57;19.90;99.90
8988;DHT22;4529;51.360;12.474;2022-10-16T10:53:33;19.90;99.90
8988;DHT22;4529;51.360;12.474;2022-10-16T10:59:01;19.90;99.90
8988;DHT22;4529;51.360;12.474;2022-10-16T11:09:42;19.80;99.90
8988;DHT22;4529;51.360;12.474;2022-10-16T11:25:28;19.90;99.90
8988;DHT22;4529;51.360;12.474;2022-10-16T11:30:32;19.90;99.90
8988;DHT22;4529;51.360;12.474;2022-10-16T11:35:50;19.90;99.90
8988;DHT22;4529;51.360;12.474;2022-10-16T11:40:52;20.00;99.90
8988;DHT22;4529;51.360;12.474;2022-10-16T11:45:57;20.10;99.90
8988;DHT22;4529;51.360;12.474;2022-10-16T11:51:11;20.10;99.90
8988;DHT22;4529;51.360;12.474;2022-10-16T11:56:11;20.10;99.90
8988;DHT22;4529;51.360;12.474;2022-10-16T12:01:35;20.10;99.90
8988;DHT22;4529;51.360;12.474;2022-10-16T12:06:47;20.10;99.90
8988;DHT22;4529;51.360;12.474;2022-10-16T12:11:49;20.10;99.90
8988;DHT22;4529;51.360;12.474;2022-10-16T12:16:56;20.10;99.90
8988;DHT22;4529;51.360;12.474;2022-10-16T12:22:00;20.10;99.90
8988;DHT22;4529;51.360;12.474;2022-10-16T12:27:02;20.20;99.90
8988;DHT22;4529;51.360;12.474;2022-10-16T12:32:27;20.30;99.90
8988;DHT22;4529;51.360;12.474;2022-10-16T12:37:34;20.40;99.90
8988;DHT22;4529;51.360;12.474;2022-10-16T12:42:37;20.40;99.90
8988;DHT22;4529;51.360;12.474;2022-10-16T12:47:50;20.50;99.90
8988;DHT22;4529;51.360;12.474;2022-10-16T12:52:54;20.50;99.90
8988;DHT22;4529;51.360;12.474;2022-10-16T12:58:20;20.50;99.90
8988;DHT22;4529;51.360;12.474;2022-10-16T13:03:44;20.50;99.90
8988;DHT22;4529;51.360;12.474;2022-10-16T13:09:05;20.40;99.90
8988;DHT22;4529;51.360;12.474;2022-10-16T13:19:38;20.30;99.90
8988;DHT22;4529;51.360;12.474;2022-10-16T13:24:59;20.30;99.90
8988;DHT22;4529;51.360;12.474;2022-10-16T13:30:24;20.20;99.90
8988;DHT22;4529;51.360;12.474;2022-10-16T13:35:29;20.40;99.90
8988;DHT22;4529;51.360;12.474;2022-10-16T13:40:32;20.40;99.90
8988;DHT22;4529;51.360;12.474;2022-10-16T13:45:36;20.30;99.90
8988;DHT22;4529;51.360;12.474;2022-10-16T13:50:40;20.30;99.90
8988;DHT22;4529;51.360;12.474;2022-10-16T13:55:44;20.30;99.90
8988;DHT22;4529;51.360;12.474;2022-10-16T14:00:56;20.40;99.90
8988;DHT22;4529;51.360;12.474;2022-10-16T14:06:01;20.40;99.90
8988;DHT22;4529;51.360;12.474;2022-10-16T14:11:02;20.30;99.90
8988;DHT22;4529;51.360;12.474;2022-10-16T14:16:15;20.30;99.90
8988;DHT22;4529;51.360;12.474;2022-10-16T14:21:14;20.30;99.90
8988;DHT22;4529;51.360;12.474;2022-10-16T14:26:19;20.10;99.90
8988;DHT22;4529;51.360;12.474;2022-10-16T14:36:31;19.80;99.90
8988;DHT22;4529;51.360;12.474;2022-10-16T14:41:40;19.80;99.90
8988;DHT22;4529;51.360;12.474;2022-10-16T14:46:39;19.80;99.90
8988;DHT22;4529;51.360;12.474;2022-10-16T14:51:42;19.80;99.90
8988;DHT22;4529;51.360;12.474;2022-10-16T14:56:49;19.80;99.90
8988;DHT22;4529;51.360;12.474;2022-10-16T15:01:52;19.80;99.90
8988;DHT22;4529;51.360;12.474;2022-10-16T15:06:56;19.80;99.90
8988;DHT22;4529;51.360;12.474;2022-10-16T15:11:59;19.70;99.90
8988;DHT22;4529;51.360;12.474;2022-10-16T15:17:03;19.60;99.90
8988;DHT22;4529;51.360;12.474;2022-10-16T15:22:06;19.50;99.90
8988;DHT22;4529;51.360;12.474;2022-10-16T15:27:10;19.50;99.90
8988;DHT22;4529;51.360;12.474;2022-10-16T15:32:13;19.60;99.90
8988;DHT22;4529;51.360;12.474;2022-10-16T15:37:16;19.80;99.90
8988;DHT22;4529;51.360;12.474;2022-10-16T15:42:20;20.00;99.90
8988;DHT22;4529;51.360;12.474;2022-10-16T15:47:23;20.00;99.90
8988;DHT22;4529;51.360;12.474;2022-10-16T15:52:28;19.90;99.90
8988;DHT22;4529;51.360;12.474;2022-10-16T15:57:32;19.80;99.90
8988;DHT22;4529;51.360;12.474;2022-10-16T16:02:36;19.60;99.90
8988;DHT22;4529;51.360;12.474;2022-10-16T16:07:41;19.60;99.90
8988;DHT22;4529;51.360;12.474;2022-10-16T16:12:45;19.60;99.90
8988;DHT22;4529;51.360;12.474;2022-10-16T16:17:48;19.40;99.90
8988;DHT22;4529;51.360;12.474;2022-10-16T16:22:51;19.20;99.90
8988;DHT22;4529;51.360;12.474;2022-10-16T16:27:54;19.00;99.90
8988;DHT22;4529;51.360;12.474;2022-10-16T16:32:58;18.80;99.90
8988;DHT22;4529;51.360;12.474;2022-10-16T16:38:01;18.60;99.90
8988;DHT22;4529;51.360;12.474;2022-10-16T16:43:05;18.50;99.90
8988;DHT22;4529;51.360;12.474;2022-10-16T16:48:08;18.40;99.90
8988;DHT22;4529;51.360;12.474;2022-10-16T16:53:12;18.20;99.90
8988;DHT22;4529;51.360;12.474;2022-10-16T16:58:15;18.10;99.90
8988;DHT22;4529;51.360;12.474;2022-10-16T17:03:19;18.10;99.90
8988;DHT22;4529;51.360;12.474;2022-10-16T17:08:22;18.00;99.90
8988;DHT22;4529;51.360;12.474;2022-10-16T17:13:27;17.90;99.90
8988;DHT22;4529;51.360;12.474;2022-10-16T17:18:29;17.70;99.90
8988;DHT22;4529;51.360;12.474;2022-10-16T17:23:33;17.60;99.90
8988;DHT22;4529;51.360;12.474;2022-10-16T17:28:36;17.60;99.90
8988;DHT22;4529;51.360;12.474;2022-10-16T17:33:40;17.70;99.90
8988;DHT22;4529;51.360;12.474;2022-10-16T17:38:43;17.80;99.90
8988;DHT22;4529;51.360;12.474;2022-10-16T17:43:47;17.90;99.90
8988;DHT22;4529;51.360;12.474;2022-10-16T17:48:51;18.00;99.90
8988;DHT22;4529;51.360;12.474;2022-10-16T17:53:57;18.00;99.90
8988;DHT22;4529;51.360;12.474;2022-10-16T17:59:00;18.00;99.90
8988;DHT22;4529;51.360;12.474;2022-10-16T18:04:07;18.00;99.90
8988;DHT22;4529;51.360;12.474;2022-10-16T18:09:11;18.00;99.90
8988;DHT22;4529;51.360;12.474;2022-10-16T18:14:14;18.00;99.90
8988;DHT22;4529;51.360;12.474;2022-10-16T18:19:16;17.80;99.90
8988;DHT22;4529;51.360;12.474;2022-10-16T18:24:20;17.80;99.90
8988;DHT22;4529;51.360;12.474;2022-10-16T18:29:24;17.70;99.90
8988;DHT22;4529;51.360;12.474;2022-10-16T18:34:27;17.60;99.90
8988;DHT22;4529;51.360;12.474;2022-10-16T18:39:30;17.60;99.90
8988;DHT22;4529;51.360;12.474;2022-10-16T18:44:34;17.50;99.90
8988;DHT22;4529;51.360;12.474;2022-10-16T18:49:37;17.50;99.90
8988;DHT22;4529;51.360;12.474;2022-10-16T18:54:41;17.40;99.90
8988;DHT22;4529;51.360;12.474;2022-10-16T18:59:45;17.30;99.90
8988;DHT22;4529;51.360;12.474;2022-10-16T19:04:49;17.30;99.90
8988;DHT22;4529;51.360;12.474;2022-10-16T19:09:54;17.20;99.90
8988;DHT22;4529;51.360;12.474;2022-10-16T19:14:58;17.20;99.90
8988;DHT22;4529;51.360;12.474;2022-10-16T19:20:03;17.10;99.90
8988;DHT22;4529;51.360;12.474;2022-10-16T19:25:07;17.00;99.90
8988;DHT22;4529;51.360;12.474;2022-10-16T19:30:10;17.00;99.90
8988;DHT22;4529;51.360;12.474;2022-10-16T19:35:15;16.90;99.90
8988;DHT22;4529;51.360;12.474;2022-10-16T19:40:18;16.80;99.90
8988;DHT22;4529;51.360;12.474;2022-10-16T19:45:22;16.80;99.90
8988;DHT22;4529;51.360;12.474;2022-10-16T19:50:26;16.80;99.90
8988;DHT22;4529;51.360;12.474;2022-10-16T19:55:33;16.70;99.90
8988;DHT22;4529;51.360;12.474;2022-10-16T20:00:41;16.60;99.90
8988;DHT22;4529;51.360;12.474;2022-10-16T20:05:53;16.60;99.90
8988;DHT22;4529;51.360;12.474;2022-10-16T20:10:57;16.50;99.90
8988;DHT22;4529;51.360;12.474;2022-10-16T20:16:01;16.50;99.90
8988;DHT22;4529;51.360;12.474;2022-10-16T20:21:14;16.40;99.90
8988;DHT22;4529;51.360;12.474;2022-10-16T20:26:17;16.40;99.90
8988;DHT22;4529;51.360;12.474;2022-10-16T20:31:24;16.30;99.90
8988;DHT22;4529;51.360;12.474;2022-10-16T20:36:26;16.20;99.90
8988;DHT22;4529;51.360;12.474;2022-10-16T20:41:30;16.20;99.90
8988;DHT22;4529;51.360;12.474;2022-10-16T20:46:33;16.10;99.90
8988;DHT22;4529;51.360;12.474;2022-10-16T20:51:37;16.00;99.90
8988;DHT22;4529;51.360;12.474;2022-10-16T20:56:41;16.10;99.90
8988;DHT22;4529;51.360;12.474;2022-10-16T21:01:45;16.00;99.90
8988;DHT22;4529;51.360;12.474;2022-10-16T21:06:49;16.00;99.90
8988;DHT22;4529;51.360;12.474;2022-10-16T21:11:53;15.90;99.90
8988;DHT22;4529;51.360;12.474;2022-10-16T21:16:58;15.70;99.90
8988;DHT22;4529;51.360;12.474;2022-10-16T21:22:02;15.70;99.90
8988;DHT22;4529;51.360;12.474;2022-10-16T21:27:05;15.70;99.90
8988;DHT22;4529;51.360;12.474;2022-10-16T21:32:09;15.70;99.90
8988;DHT22;4529;51.360;12.474;2022-10-16T21:37:12;15.70;99.90
8988;DHT22;4529;51.360;12.474;2022-10-16T21:42:16;15.70;99.90
8988;DHT22;4529;51.360;12.474;2022-10-16T21:47:19;15.70;99.90
8988;DHT22;4529;51.360;12.474;2022-10-16T21:52:23;15.80;99.90
8988;DHT22;4529;51.360;12.474;2022-10-16T21:57:26;15.80;99.90
8988;DHT22;4529;51.360;12.474;2022-10-16T22:02:29;15.80;99.90
8988;DHT22;4529;51.360;12.474;2022-10-16T22:07:33;15.80;99.90
8988;DHT22;4529;51.360;12.474;2022-10-16T22:12:36;15.80;99.90
8988;DHT22;4529;51.360;12.474;2022-10-16T22:17:40;16.10;99.90
8988;DHT22;4529;51.360;12.474;2022-10-16T22:22:43;16.30;99.90
8988;DHT22;4529;51.360;12.474;2022-10-16T22:27:47;16.50;99.90
8988;DHT22;4529;51.360;12.474;2022-10-16T22:32:50;16.60;99.90
8988;DHT22;4529;51.360;12.474;2022-10-16T22:37:54;16.70;99.90
8988;DHT22;4529;51.360;12.474;2022-10-16T22:42:57;16.80;99.90
8988;DHT22;4529;51.360;12.474;2022-10-16T22:48:01;16.80;99.90
8988;DHT22;4529;51.360;12.474;2022-10-16T22:53:04;16.80;99.90
8988;DHT22;4529;51.360;12.474;2022-10-16T22:58:08;16.90;99.90
8988;DHT22;4529;51.360;12.474;2022-10-16T23:03:11;16.90;99.90
8988;DHT22;4529;51.360;12.474;2022-10-16T23:08:15;16.90;99.90
8988;DHT22;4529;51.360;12.474;2022-10-16T23:13:18;16.80;99.90
8988;DHT22;4529;51.360;12.474;2022-10-16T23:18:21;16.80;99.90
8988;DHT22;4529;51.360;12.474;2022-10-16T23:23:25;16.80;99.90
8988;DHT22;4529;51.360;12.474;2022-10-16T23:28:28;16.70;99.90
8988;DHT22;4529;51.360;12.474;2022-10-16T23:33:32;16.60;99.90
8988;DHT22;4529;51.360;12.474;2022-10-16T23:38:35;16.60;99.90
8988;DHT22;4529;51.360;12.474;2022-10-16T23:43:39;16.60;99.90
8988;DHT22;4529;51.360;12.474;2022-10-16T23:48:43;16.50;99.90
8988;DHT22;4529;51.360;12.474;2022-10-16T23:53:46;16.30;99.90
8988;DHT22;4529;51.360;12.474;2022-10-16T23:58:50;16.00;99.90
